createdAt,value
2018-05-15T00:01:19.318Z,98.40
2018-05-15T00:03:46.239Z,98.60
2018-05-15T00:06:12.548Z,98.80
2018-05-15T00:08:39.540Z,99.20
2018-05-15T00:11:05.784Z,99.00
2018-05-15T00:13:32.112Z,99.00
2018-05-15T00:15:59.095Z,99.00
2018-05-15T00:18:25.343Z,99.00
2018-05-15T00:20:51.614Z,99.30
2018-05-15T00:23:18.582Z,99.50
2018-05-15T00:25:44.899Z,99.60
2018-05-15T00:28:11.899Z,99.90
2018-05-15T00:30:38.915Z,99.90
2018-05-15T00:33:05.187Z,99.60
2018-05-15T00:35:31.457Z,99.50
2018-05-15T00:37:58.443Z,99.10
2018-05-15T00:40:24.738Z,99.20
2018-05-15T00:42:50.983Z,99.30
2018-05-15T00:45:17.223Z,99.40
2018-05-15T00:47:44.198Z,99.70
2018-05-15T00:50:10.818Z,99.30
2018-05-15T00:52:37.838Z,99.50
2018-05-15T00:55:16.413Z,99.20
2018-05-15T00:57:42.649Z,99.10
2018-05-15T01:00:09.258Z,99.20
2018-05-15T01:02:35.936Z,99.30
2018-05-15T01:05:02.908Z,99.30
2018-05-15T01:07:29.213Z,99.40
2018-05-15T01:09:56.152Z,99.60
2018-05-15T01:12:23.153Z,99.70
2018-05-15T01:14:49.408Z,99.40
2018-05-15T01:17:15.656Z,99.40
2018-05-15T01:19:41.918Z,99.30
2018-05-15T01:22:08.529Z,99.20
2018-05-15T01:24:34.798Z,99.10
2018-05-15T01:27:01.395Z,99.00
2018-05-15T01:29:27.743Z,99.00
2018-05-15T01:31:53.994Z,99.00
2018-05-15T01:34:20.304Z,99.10
2018-05-15T01:36:47.289Z,99.50
2018-05-15T01:39:13.563Z,99.10
2018-05-15T01:41:40.546Z,99.10
2018-05-15T01:44:07.203Z,99.20
2018-05-15T01:46:33.434Z,99.20
2018-05-15T01:48:59.689Z,99.30
2018-05-15T01:51:25.933Z,99.20
2018-05-15T01:53:52.160Z,99.20
2018-05-15T01:56:19.922Z,99.50
2018-05-15T01:58:46.139Z,99.30
2018-05-15T02:01:12.423Z,99.20
2018-05-15T02:03:39.384Z,99.40
2018-05-15T02:06:05.709Z,99.10
2018-05-15T02:08:32.664Z,99.40
2018-05-15T02:10:59.649Z,99.40
2018-05-15T02:13:25.864Z,99.10
2018-05-15T02:15:52.158Z,99.20
2018-05-15T02:18:18.765Z,99.20
2018-05-15T02:20:46.144Z,99.40
2018-05-15T02:23:12.362Z,99.00
2018-05-15T02:25:38.633Z,99.00
2018-05-15T02:28:05.300Z,98.90
2018-05-15T02:30:31.606Z,99.00
2018-05-15T02:32:58.583Z,99.10
2018-05-15T02:35:24.804Z,99.10
2018-05-15T02:37:51.403Z,98.90
2018-05-15T02:40:17.654Z,98.80
2018-05-15T02:42:43.934Z,98.70
2018-05-15T02:45:10.900Z,99.20
2018-05-15T02:47:37.885Z,99.00
2018-05-15T02:50:04.138Z,98.70
2018-05-15T02:52:30.349Z,98.80
2018-05-15T02:54:57.360Z,99.00
2018-05-15T02:57:23.700Z,98.70
2018-05-15T02:59:49.995Z,98.60
2018-05-15T03:02:16.225Z,98.50
2018-05-15T03:04:42.456Z,98.50
2018-05-15T03:07:08.681Z,98.40
2018-05-15T03:09:34.948Z,98.30
2018-05-15T03:12:01.218Z,98.30
2018-05-15T03:14:27.901Z,98.20
2018-05-15T03:16:54.550Z,98.30
2018-05-15T03:19:20.762Z,98.30
2018-05-15T03:21:47.793Z,98.60
2018-05-15T03:24:14.061Z,98.60
2018-05-15T03:26:40.710Z,98.70
2018-05-15T03:29:07.358Z,98.80
2018-05-15T03:31:33.989Z,98.80
2018-05-15T03:34:00.233Z,98.70
2018-05-15T03:36:26.509Z,98.80
2018-05-15T03:38:53.559Z,98.70
2018-05-15T03:41:19.803Z,98.60
2018-05-15T03:43:46.124Z,98.70
2018-05-15T03:46:12.355Z,98.60
2018-05-15T03:48:38.585Z,98.60
2018-05-15T03:51:04.843Z,98.70
2018-05-15T03:53:31.099Z,98.80
2018-05-15T03:55:57.722Z,98.70
2018-05-15T03:58:23.940Z,98.70
2018-05-15T04:01:02.525Z,98.70
2018-05-15T04:03:41.084Z,98.60
2018-05-15T04:06:19.660Z,98.40
2018-05-15T04:08:46.012Z,98.40
2018-05-15T04:11:12.315Z,98.40
2018-05-15T04:13:38.564Z,98.30
2018-05-15T04:16:05.530Z,98.60
2018-05-15T04:18:31.840Z,98.40
2018-05-15T04:20:58.859Z,98.70
2018-05-15T04:23:25.494Z,98.30
2018-05-15T04:25:52.499Z,98.30
2018-05-15T04:28:19.550Z,98.30
2018-05-15T04:30:46.499Z,98.60
2018-05-15T04:33:13.135Z,98.30
2018-05-15T04:35:40.174Z,98.60
2018-05-15T04:38:06.443Z,98.30
2018-05-15T04:40:33.424Z,98.80
2018-05-15T04:43:00.453Z,98.50
2018-05-15T04:45:26.721Z,98.50
2018-05-15T04:47:52.993Z,98.10
2018-05-15T04:50:19.259Z,98.10
2018-05-15T04:52:46.258Z,98.40
2018-05-15T04:55:12.521Z,98.10
2018-05-15T04:57:38.834Z,98.10
2018-05-15T05:00:05.430Z,98.10
2018-05-15T05:02:31.681Z,98.20
2018-05-15T05:04:58.655Z,98.20
2018-05-15T05:07:24.905Z,98.10
2018-05-15T05:09:51.490Z,98.20
2018-05-15T05:12:18.522Z,98.50
2018-05-15T05:14:44.796Z,98.30
2018-05-15T05:17:11.095Z,98.00
2018-05-15T05:19:38.080Z,97.70
2018-05-15T05:22:04.344Z,97.50
2018-05-15T05:24:30.612Z,97.40
2018-05-15T05:26:58.321Z,97.70
2018-05-15T05:29:24.616Z,97.70
2018-05-15T05:31:50.871Z,97.40
2018-05-15T05:34:17.880Z,97.80
2018-05-15T05:36:44.842Z,97.70
2018-05-15T05:39:11.130Z,97.60
2018-05-15T05:41:37.378Z,97.70
2018-05-15T05:44:04.831Z,98.00
2018-05-15T05:46:31.868Z,97.80
2018-05-15T05:48:58.115Z,97.90
2018-05-15T05:51:25.066Z,98.20
2018-05-15T05:53:52.095Z,98.20
2018-05-15T05:56:18.316Z,97.90
2018-05-15T05:58:44.976Z,98.60
2018-05-15T06:01:11.561Z,98.40
2018-05-15T06:03:37.856Z,98.30
2018-05-15T06:06:04.525Z,97.40
2018-05-15T06:08:30.765Z,96.40
2018-05-15T06:10:57.039Z,95.90
2018-05-15T06:13:24.029Z,96.10
2018-05-15T06:15:51.135Z,96.90
2018-05-15T06:18:18.484Z,96.10
2018-05-15T06:20:45.582Z,96.10
2018-05-15T06:23:12.502Z,96.60
2018-05-15T06:25:39.522Z,95.80
2018-05-15T06:28:05.736Z,96.30
2018-05-15T06:30:31.959Z,95.70
2018-05-15T06:32:58.554Z,95.80
2018-05-15T06:35:25.560Z,95.70
2018-05-15T06:37:53.320Z,96.20
2018-05-15T06:40:19.551Z,96.30
2018-05-15T06:42:45.808Z,96.70
2018-05-15T06:45:12.050Z,96.60
2018-05-15T06:47:39.087Z,97.10
2018-05-15T06:50:05.300Z,96.70
2018-05-15T06:52:31.581Z,96.50
2018-05-15T06:54:58.647Z,96.90
2018-05-15T06:57:24.971Z,96.30
2018-05-15T06:59:51.931Z,96.00
2018-05-15T07:02:18.256Z,95.80
2018-05-15T07:04:44.856Z,95.60
2018-05-15T07:07:11.171Z,95.60
2018-05-15T07:09:37.491Z,95.60
2018-05-15T07:12:04.112Z,95.60
2018-05-15T07:14:31.844Z,95.90
2018-05-15T07:16:58.100Z,95.50
2018-05-15T07:19:24.392Z,95.50
2018-05-15T07:21:51.341Z,95.70
2018-05-15T07:24:17.992Z,96.10
2018-05-15T07:26:44.192Z,95.70
2018-05-15T07:29:10.811Z,95.90
2018-05-15T07:31:37.071Z,96.10
2018-05-15T07:34:04.126Z,96.10
2018-05-15T07:36:31.086Z,96.70
2018-05-15T07:38:57.377Z,96.20
2018-05-15T07:41:23.651Z,96.30
2018-05-15T07:43:50.693Z,96.50
2018-05-15T07:46:17.321Z,96.40
2018-05-15T07:48:44.333Z,96.30
2018-05-15T07:51:10.981Z,95.50
2018-05-15T07:53:37.591Z,95.00
2018-05-15T07:56:04.589Z,95.40
2018-05-15T07:58:30.890Z,95.10
2018-05-15T08:00:57.922Z,95.40
2018-05-15T08:03:24.166Z,94.70
2018-05-15T08:05:50.448Z,94.90
2018-05-15T08:08:16.682Z,94.70
2018-05-15T08:10:42.951Z,94.40
2018-05-15T08:13:09.576Z,94.60
2018-05-15T08:15:36.202Z,95.10
2018-05-15T08:18:02.486Z,94.80
2018-05-15T08:20:28.756Z,94.60
2018-05-15T08:22:55.008Z,94.60
2018-05-15T08:25:21.262Z,93.60
2018-05-15T08:27:47.532Z,94.30
2018-05-15T08:30:14.515Z,92.50
2018-05-15T08:32:40.773Z,91.90
2018-05-15T08:35:07.028Z,93.10
2018-05-15T08:37:33.682Z,90.20
2018-05-15T08:40:00.333Z,90.50
2018-05-15T08:42:27.003Z,91.10
2018-05-15T08:44:54.055Z,92.50
2018-05-15T08:47:21.060Z,91.30
2018-05-15T08:49:47.772Z,89.10
2018-05-15T08:52:14.961Z,90.90
2018-05-15T08:54:41.264Z,91.20
2018-05-15T08:57:07.566Z,91.70
2018-05-15T08:59:33.843Z,87.40
2018-05-15T09:02:00.146Z,83.70
2018-05-15T09:04:27.915Z,84.70
2018-05-15T09:06:54.149Z,89.30
2018-05-15T09:09:20.476Z,85.50
2018-05-15T09:11:47.106Z,88.20
2018-05-15T09:14:13.441Z,87.10
2018-05-15T09:16:39.746Z,85.40
2018-05-15T09:19:06.487Z,89.50
2018-05-15T09:21:32.681Z,87.40
2018-05-15T09:23:58.942Z,87.10
2018-05-15T09:26:25.941Z,86.80
2018-05-15T09:28:52.230Z,89.90
2018-05-15T09:31:18.865Z,90.10
2018-05-15T09:33:45.851Z,89.40
2018-05-15T09:36:12.080Z,90.20
2018-05-15T09:38:39.685Z,88.10
2018-05-15T09:41:05.912Z,89.20
2018-05-15T09:46:37.380Z,90.50
2018-05-15T09:49:03.713Z,88.90
2018-05-15T09:51:29.977Z,91.50
2018-05-15T09:53:56.265Z,88.10
2018-05-15T09:56:22.561Z,89.50
2018-05-15T09:58:48.832Z,85.80
2018-05-15T10:01:15.070Z,86.60
2018-05-15T10:03:42.072Z,89.80
2018-05-15T10:06:08.367Z,85.40
2018-05-15T10:08:34.621Z,87.30
2018-05-15T10:11:00.944Z,88.50
2018-05-15T10:13:27.637Z,84.20
2018-05-15T10:15:53.904Z,82.90
2018-05-15T10:18:20.158Z,84.50
2018-05-15T10:20:46.462Z,81.60
2018-05-15T10:23:13.522Z,83.90
2018-05-15T10:25:40.577Z,83.50
2018-05-15T10:28:07.637Z,83.50
2018-05-15T10:30:33.928Z,87.10
2018-05-15T10:33:00.219Z,85.70
2018-05-15T10:35:26.436Z,80.90
2018-05-15T10:37:53.433Z,82.10
2018-05-15T10:40:19.682Z,81.30
2018-05-15T10:42:45.984Z,83.30
2018-05-15T10:45:12.219Z,84.50
2018-05-15T10:47:38.574Z,80.40
2018-05-15T10:50:05.557Z,84.50
2018-05-15T10:52:31.819Z,77.80
2018-05-15T10:54:58.439Z,79.40
2018-05-15T10:57:25.413Z,80.30
2018-05-15T10:59:52.027Z,77.60
2018-05-15T11:02:18.261Z,74.20
2018-05-15T11:04:44.911Z,77.40
2018-05-15T11:07:11.137Z,76.50
2018-05-15T11:09:37.448Z,78.70
2018-05-15T11:12:03.691Z,80.40
2018-05-15T11:14:30.022Z,78.90
2018-05-15T11:16:56.292Z,80.00
2018-05-15T11:19:34.734Z,79.70
2018-05-15T11:22:13.928Z,81.80
2018-05-15T11:24:53.274Z,78.90
2018-05-15T11:27:19.542Z,75.90
2018-05-15T11:29:46.529Z,76.10
2018-05-15T11:32:12.772Z,72.90
2018-05-15T11:34:39.447Z,75.40
2018-05-15T11:37:05.753Z,71.30
2018-05-15T11:39:32.010Z,70.90
2018-05-15T11:41:58.324Z,72.30
2018-05-15T11:44:24.980Z,73.50
2018-05-15T11:46:51.228Z,74.10
2018-05-15T11:49:18.627Z,71.90
2018-05-15T11:51:44.654Z,71.50
2018-05-15T11:54:10.066Z,67.90
2018-05-15T11:56:37.112Z,70.30
2018-05-15T11:59:04.199Z,70.90
2018-05-15T12:01:30.512Z,69.00
2018-05-15T12:03:57.572Z,71.40
2018-05-15T12:06:33.646Z,68.10
2018-05-15T12:09:00.654Z,70.80
2018-05-15T12:11:26.879Z,70.20
2018-05-15T12:13:53.139Z,71.30
2018-05-15T12:16:20.839Z,69.00
2018-05-15T12:18:47.075Z,67.90
2018-05-15T12:21:13.383Z,67.00
2018-05-15T12:23:40.422Z,66.80
2018-05-15T12:26:06.710Z,66.00
2018-05-15T12:28:33.343Z,66.60
2018-05-15T12:30:59.639Z,65.30
2018-05-15T12:33:25.928Z,65.90
2018-05-15T12:35:52.253Z,64.70
2018-05-15T12:38:18.443Z,64.30
2018-05-15T12:40:44.694Z,62.50
2018-05-15T12:43:11.437Z,59.20
2018-05-15T12:45:37.707Z,60.80
2018-05-15T12:48:04.085Z,62.50
2018-05-15T12:50:30.289Z,63.70
2018-05-15T12:52:56.551Z,62.40
2018-05-15T12:55:22.821Z,61.70
2018-05-15T12:57:51.367Z,58.60
2018-05-15T13:00:17.624Z,59.70
2018-05-15T13:02:44.623Z,62.90
2018-05-15T13:05:11.618Z,62.40
2018-05-15T13:07:37.991Z,60.80
2018-05-15T13:10:04.240Z,64.00
2018-05-15T13:12:31.303Z,62.80
2018-05-15T13:14:58.237Z,63.50
2018-05-15T13:17:25.274Z,62.40
2018-05-15T13:19:51.570Z,60.00
2018-05-15T13:22:19.784Z,56.60
2018-05-15T13:24:46.033Z,57.20
2018-05-15T13:27:12.328Z,52.50
2018-05-15T13:29:38.565Z,53.80
2018-05-15T13:32:04.838Z,53.40
2018-05-15T13:34:31.050Z,51.60
2018-05-15T13:36:57.332Z,49.40
2018-05-15T13:39:24.412Z,47.10
2018-05-15T13:41:50.652Z,50.60
2018-05-15T13:44:16.897Z,47.20
2018-05-15T13:46:43.204Z,51.10
2018-05-15T13:49:10.294Z,48.10
2018-05-15T13:51:36.598Z,45.90
2018-05-15T13:54:02.888Z,47.10
2018-05-15T13:56:29.186Z,48.70
2018-05-15T13:58:56.204Z,45.90
2018-05-15T14:01:23.212Z,47.80
2018-05-15T14:03:49.590Z,46.20
2018-05-15T14:06:16.562Z,48.80
2018-05-15T14:08:43.504Z,48.00
2018-05-15T14:11:10.533Z,48.10
2018-05-15T14:13:36.836Z,48.60
2018-05-15T14:16:03.188Z,50.20
2018-05-15T14:18:29.384Z,51.40
2018-05-15T14:20:55.693Z,52.80
2018-05-15T14:23:22.690Z,49.10
2018-05-15T14:25:48.933Z,51.20
2018-05-15T14:28:16.232Z,54.30
2018-05-15T14:30:42.847Z,53.20
2018-05-15T14:33:09.108Z,50.00
2018-05-15T14:35:35.433Z,47.00
2018-05-15T14:38:01.718Z,47.70
2018-05-15T14:40:28.979Z,44.70
2018-05-15T14:43:07.396Z,44.10
2018-05-15T14:45:33.678Z,43.20
2018-05-15T14:47:59.938Z,44.10
2018-05-15T14:50:26.955Z,48.20
2018-05-15T14:52:53.618Z,48.80
2018-05-15T14:55:20.644Z,51.20
2018-05-15T14:57:46.884Z,52.00
2018-05-15T15:00:13.164Z,54.80
2018-05-15T15:02:39.850Z,55.10
2018-05-15T15:05:06.109Z,56.30
2018-05-15T15:07:32.417Z,48.30
2018-05-15T15:09:58.691Z,49.40
2018-05-15T15:12:25.415Z,51.60
2018-05-15T15:14:52.133Z,54.50
2018-05-15T15:17:18.472Z,54.10
2018-05-15T15:19:45.042Z,56.00
2018-05-15T15:22:11.330Z,56.40
2018-05-15T15:24:38.407Z,56.50
2018-05-15T15:27:04.685Z,58.40
2018-05-15T15:29:30.931Z,57.70
2018-05-15T15:31:57.221Z,58.70
2018-05-15T15:34:24.304Z,58.20
2018-05-15T15:36:50.544Z,59.40
2018-05-15T15:39:16.847Z,61.20
2018-05-15T15:41:43.158Z,60.20
2018-05-15T15:44:10.137Z,64.20
2018-05-15T15:46:36.402Z,62.80
2018-05-15T15:49:02.659Z,62.70
2018-05-15T15:51:28.919Z,63.00
2018-05-15T15:53:55.909Z,62.00
2018-05-15T15:56:22.133Z,59.70
2018-05-15T15:58:49.175Z,64.70
2018-05-15T16:01:16.145Z,62.90
2018-05-15T16:03:42.799Z,63.30
2018-05-15T16:06:09.088Z,65.80
2018-05-15T16:08:36.075Z,67.40
2018-05-15T16:11:03.094Z,68.40
2018-05-15T16:13:29.390Z,66.70
2018-05-15T16:15:55.650Z,66.80
2018-05-15T16:18:21.888Z,65.70
2018-05-15T16:20:48.199Z,65.50
2018-05-15T16:23:14.477Z,69.50
2018-05-15T16:25:41.492Z,70.50
2018-05-15T16:28:08.634Z,64.80
2018-05-15T16:30:34.940Z,69.80
2018-05-15T16:33:01.233Z,66.20
2018-05-15T16:35:27.498Z,70.50
2018-05-15T16:37:54.510Z,72.00
2018-05-15T16:40:20.765Z,72.40
2018-05-15T16:42:48.352Z,70.20
2018-05-15T16:45:15.353Z,74.90
2018-05-15T16:47:41.603Z,72.10
2018-05-15T16:50:07.903Z,72.80
2018-05-15T16:52:34.205Z,72.90
2018-05-15T16:55:00.430Z,77.10
2018-05-15T16:57:26.742Z,78.80
2018-05-15T16:59:53.407Z,75.80
2018-05-15T17:02:19.668Z,73.10
2018-05-15T17:04:46.617Z,72.90
2018-05-15T17:07:12.895Z,72.30
2018-05-15T17:09:39.130Z,72.30
2018-05-15T17:12:05.427Z,72.80
2018-05-15T17:14:32.444Z,73.70
2018-05-15T17:16:58.784Z,73.70
2018-05-15T17:19:25.046Z,73.50
2018-05-15T17:21:51.299Z,73.80
2018-05-15T17:24:18.352Z,76.70
2018-05-15T17:26:45.357Z,78.50
2018-05-15T17:29:11.618Z,78.50
2018-05-15T17:31:38.294Z,77.10
2018-05-15T17:34:04.569Z,75.50
2018-05-15T17:36:30.787Z,75.80
2018-05-15T17:38:57.826Z,76.10
2018-05-15T17:41:24.063Z,77.20
2018-05-15T17:43:50.725Z,77.40
2018-05-15T17:46:16.965Z,80.90
2018-05-15T17:48:43.263Z,76.10
2018-05-15T17:51:10.240Z,82.10
2018-05-15T17:53:36.508Z,80.50
2018-05-15T17:56:03.179Z,83.90
2018-05-15T17:58:29.413Z,85.30
2018-05-15T18:00:55.740Z,83.20
2018-05-15T18:03:22.003Z,81.20
2018-05-15T18:05:49.070Z,85.70
2018-05-15T18:08:15.364Z,80.90
2018-05-15T18:10:42.043Z,84.70
2018-05-15T18:13:09.063Z,83.40
2018-05-15T18:15:35.354Z,83.00
2018-05-15T18:18:02.309Z,82.50
2018-05-15T18:20:29.756Z,82.40
2018-05-15T18:22:56.000Z,82.80
2018-05-15T18:25:22.305Z,82.50
2018-05-15T18:27:49.464Z,83.50
2018-05-15T18:30:17.064Z,86.50
2018-05-15T18:32:43.359Z,85.40
2018-05-15T18:35:11.721Z,85.00
2018-05-15T18:37:39.274Z,84.30
2018-05-15T18:40:08.172Z,85.00
2018-05-15T18:42:34.959Z,83.50
2018-05-15T18:45:01.966Z,85.80
2018-05-15T18:47:29.054Z,84.40
2018-05-15T18:49:56.815Z,86.50
2018-05-15T18:52:23.899Z,86.60
2018-05-15T18:54:50.549Z,84.70
2018-05-15T18:57:18.169Z,84.70
2018-05-15T18:59:44.796Z,85.80
2018-05-15T19:02:13.001Z,85.30
2018-05-15T19:04:40.660Z,83.60
2018-05-15T19:07:07.750Z,83.60
2018-05-15T19:09:36.069Z,84.50
2018-05-15T19:12:03.316Z,82.80
2018-05-15T19:14:29.701Z,82.10
2018-05-15T19:16:56.270Z,81.40
2018-05-15T19:19:24.521Z,85.00
2018-05-15T19:21:52.389Z,83.00
2018-05-15T19:24:20.604Z,84.10
2018-05-15T19:26:47.658Z,82.70
2018-05-15T19:29:14.469Z,85.00
2018-05-15T19:31:41.269Z,84.10
2018-05-15T19:34:15.336Z,86.60
2018-05-15T19:36:49.411Z,86.60
2018-05-15T19:39:16.716Z,88.80
2018-05-15T19:41:42.896Z,87.30
2018-05-15T19:44:09.921Z,87.70
2018-05-15T19:46:37.472Z,85.10
2018-05-15T19:49:04.660Z,85.00
2018-05-15T19:51:32.263Z,86.40
2018-05-15T19:53:58.575Z,86.40
2018-05-15T19:56:25.555Z,87.50
2018-05-15T19:58:54.527Z,87.10
2018-05-15T20:01:23.369Z,86.40
2018-05-15T20:03:50.013Z,86.60
2018-05-15T20:06:17.174Z,86.90
2018-05-15T20:08:44.989Z,87.30
2018-05-15T20:11:13.268Z,88.20
2018-05-15T20:13:40.169Z,87.80
2018-05-15T20:16:06.728Z,87.00
2018-05-15T20:18:33.831Z,87.30
2018-05-15T20:21:01.212Z,90.00
2018-05-15T20:23:27.470Z,88.70
2018-05-15T20:25:57.185Z,90.00
2018-05-15T20:28:24.318Z,89.20
2018-05-15T20:30:51.766Z,89.40
2018-05-15T20:33:18.091Z,89.00
2018-05-15T20:35:44.467Z,90.40
2018-05-15T20:38:10.967Z,90.30
2018-05-15T20:40:37.997Z,90.60
2018-05-15T20:43:05.017Z,90.80
2018-05-15T20:45:34.227Z,90.50
2018-05-15T20:48:00.489Z,90.50
2018-05-15T20:50:26.799Z,90.60
2018-05-15T20:52:53.085Z,90.10
2018-05-15T20:55:20.109Z,89.10
2018-05-15T20:57:47.000Z,90.00
2018-05-15T21:00:13.991Z,89.50
2018-05-15T21:02:40.247Z,88.00
2018-05-15T21:05:07.091Z,90.20
2018-05-15T21:07:34.373Z,90.00
2018-05-15T21:10:01.374Z,90.10
2018-05-15T21:12:27.951Z,87.60
2018-05-15T21:14:54.204Z,87.70
2018-05-15T21:17:20.839Z,86.40
2018-05-15T21:19:47.080Z,85.90
2018-05-15T21:22:14.260Z,86.80
2018-05-15T21:24:41.265Z,85.50
2018-05-15T21:27:08.287Z,87.20
2018-05-15T21:29:34.585Z,86.20
2018-05-15T21:32:01.613Z,85.50
2018-05-15T21:34:27.895Z,84.70
2018-05-15T21:36:54.880Z,85.30
2018-05-15T21:39:21.145Z,84.90
2018-05-15T21:41:47.367Z,85.40
2018-05-15T21:44:13.655Z,84.40
2018-05-15T21:46:40.603Z,85.90
2018-05-15T21:49:07.227Z,84.30
2018-05-15T21:51:34.225Z,85.10
2018-05-15T21:54:01.227Z,85.60
2018-05-15T21:56:27.462Z,85.30
2018-05-15T21:58:53.716Z,84.40
2018-05-15T22:01:20.796Z,84.70
2018-05-15T22:03:47.135Z,85.20
2018-05-15T22:06:13.660Z,85.30
2018-05-15T22:08:40.655Z,84.70
2018-05-15T22:11:12.886Z,86.00
2018-05-15T22:13:51.181Z,84.40
2018-05-15T22:16:29.960Z,83.90
2018-05-15T22:19:08.345Z,83.90
2018-05-15T22:21:46.818Z,84.20
2018-05-15T22:24:19.252Z,85.30
2018-05-15T22:26:45.560Z,84.90
2018-05-15T22:29:12.596Z,84.80
2018-05-15T22:31:39.602Z,85.50
2018-05-15T22:34:05.871Z,84.40
2018-05-15T22:36:32.143Z,85.60
2018-05-15T22:38:59.125Z,85.10
2018-05-15T22:41:25.380Z,85.00
2018-05-15T22:43:52.385Z,85.90
2018-05-15T22:46:18.657Z,86.00
2018-05-15T22:48:44.913Z,85.90
2018-05-15T22:51:11.183Z,85.10
2018-05-15T22:53:37.420Z,84.60
2018-05-15T22:56:05.041Z,84.80
2018-05-15T22:58:31.767Z,85.10
2018-05-15T23:00:59.117Z,85.70
2018-05-15T23:03:25.396Z,85.70
2018-05-15T23:05:51.658Z,84.80
2018-05-15T23:08:18.666Z,85.90
2018-05-15T23:10:45.621Z,84.90
2018-05-15T23:13:11.876Z,84.40
2018-05-15T23:15:38.227Z,85.40
2018-05-15T23:18:04.426Z,85.50
2018-05-15T23:20:30.674Z,85.60
2018-05-15T23:22:57.326Z,84.60
2018-05-15T23:25:24.472Z,84.30
2018-05-15T23:27:50.761Z,83.90
2018-05-15T23:30:17.002Z,84.20
2018-05-15T23:32:43.353Z,85.50
2018-05-15T23:35:09.617Z,86.10
2018-05-15T23:37:36.561Z,86.50
2018-05-15T23:40:02.868Z,84.00
2018-05-15T23:42:29.107Z,84.60
2018-05-15T23:44:55.352Z,84.70
2018-05-15T23:47:21.592Z,85.10
2018-05-15T23:49:47.846Z,85.00
2018-05-15T23:52:14.093Z,85.50
2018-05-15T23:54:40.348Z,87.00
2018-05-15T23:57:07.367Z,86.20
2018-05-15T23:59:33.636Z,86.40
